Time;durP1;ratioP1;P1;durP2;ratioP2;P2;SDS_P1;SDS_P2;PMS_P1;PMS_P2;Temp;Humidity;BMP_temperature;BMP_pressure;BME280_temperature;BME280_humidity;BME280_pressure;Samples;Min_cycle;Max_cycle;Signal;HPM_P1;HPM_P2
2021/12/02 00:00:45;;;;;;;1.25;0.47;;;26.70;64.90;;;;;;5086764;23;20024;-46
2021/12/02 00:02:47;;;;;;;0.40;0.35;;;26.70;65.50;;;;;;5111977;23;20053;-49
2021/12/02 00:04:50;;;;;;;0.33;0.30;;;26.70;64.80;;;;;;5114537;23;20033;-50
2021/12/02 00:06:51;;;;;;;;;;;26.70;64.80;;;;;;5114456;23;20079;-47
2021/12/02 00:08:54;;;;;;;1.50;0.60;;;26.70;64.80;;;;;;5112778;23;20000;-50
2021/12/02 00:10:56;;;;;;;1.10;0.70;;;26.70;64.70;;;;;;5106485;23;20024;-48
2021/12/02 00:12:59;;;;;;;2.17;0.68;;;26.70;64.70;;;;;;5143685;23;20020;-50
2021/12/02 00:15:06;;;;;;;;;;;26.70;64.80;;;;;;5139627;23;20063;-47
2021/12/02 00:17:13;;;;;;;1.52;0.90;;;26.70;64.80;;;;;;5106308;23;20545;-46
2021/12/02 00:21:41;;;;;;;0.40;0.40;;;26.80;64.90;;;;;;5130972;23;20088;-45
2021/12/02 00:24:03;;;;;;;0.45;0.30;;;26.80;65.00;;;;;;5130790;23;20446;-46
2021/12/02 00:26:17;;;;;;;1.55;0.50;;;26.80;65.00;;;;;;5103490;23;20035;-45
2021/12/02 00:28:21;;;;;;;0.30;0.30;;;26.80;65.10;;;;;;5135841;23;20035;-45
2021/12/02 00:30:24;;;;;;;0.55;0.50;;;26.80;65.10;;;;;;5133863;23;20079;-50
2021/12/02 00:32:29;;;;;;;1.30;0.30;;;26.80;65.20;;;;;;5102981;23;20024;-47
2021/12/02 00:34:32;;;;;;;2.20;0.40;;;26.80;65.20;;;;;;5104627;23;20849;-46
2021/12/02 00:36:37;;;;;;;0.68;0.45;;;26.90;65.30;;;;;;5129831;23;20039;-47
2021/12/02 00:38:41;;;;;;;1.65;0.30;;;26.90;66.00;;;;;;5129262;23;20766;-48
2021/12/02 00:40:43;;;;;;;0.50;0.30;;;26.90;65.50;;;;;;5128824;23;20155;-47
2021/12/02 00:42:46;;;;;;;0.73;0.43;;;26.90;65.40;;;;;;5102474;23;20565;-47
2021/12/02 00:44:48;;;;;;;2.60;0.32;;;26.90;65.40;;;;;;5133075;23;20047;-45
2021/12/02 00:46:51;;;;;;;2.25;0.38;;;26.90;65.30;;;;;;5132137;23;20832;-46
2021/12/02 00:48:53;;;;;;;1.40;0.30;;;26.90;65.40;;;;;;5128072;23;20028;-46
2021/12/02 00:50:56;;;;;;;2.50;0.40;;;26.90;65.40;;;;;;5130369;23;20151;-48
2021/12/02 00:52:58;;;;;;;1.00;0.40;;;26.90;65.40;;;;;;5127855;23;20028;-44
2021/12/02 00:55:03;;;;;;;1.30;0.50;;;27.00;65.50;;;;;;5129314;23;20032;-47
2021/12/02 00:57:05;;;;;;;1.48;0.60;;;27.00;65.50;;;;;;5129301;23;20024;-44
2021/12/02 00:59:09;;;;;;;2.83;0.70;;;27.00;65.40;;;;;;5105905;23;20547;-44
2021/12/02 01:01:11;;;;;;;0.93;0.38;;;27.00;65.30;;;;;;5132132;23;20095;-46
2021/12/02 01:03:14;;;;;;;1.77;0.40;;;27.00;65.30;;;;;;5128188;23;20027;-44
2021/12/02 01:05:17;;;;;;;1.40;0.88;;;27.10;65.20;;;;;;5128868;23;20031;-48
2021/12/02 01:07:21;;;;;;;2.08;1.35;;;27.10;62.10;;;;;;5124626;23;20066;-50
2021/12/02 01:09:24;;;;;;;3.30;0.90;;;26.90;59.40;;;;;;5127060;23;20032;-50
2021/12/02 01:11:26;;;;;;;2.10;1.08;;;26.80;57.60;;;;;;5127497;23;20055;-51
2021/12/02 01:13:28;;;;;;;1.65;1.00;;;26.70;56.40;;;;;;5131511;23;20063;-48
2021/12/02 01:15:30;;;;;;;1.80;1.07;;;26.50;55.40;;;;;;5131716;23;20169;-50
2021/12/02 01:17:33;;;;;;;6.28;1.08;;;26.40;54.80;;;;;;5128645;23;21388;-55
2021/12/02 01:19:35;;;;;;;2.77;0.80;;;26.30;54.20;;;;;;5128177;23;20060;-51
2021/12/02 01:21:39;;;;;;;2.05;0.93;;;26.10;54.50;;;;;;5128122;23;20028;-50
2021/12/02 01:23:42;;;;;;;0.75;0.68;;;26.10;56.10;;;;;;5127306;23;20086;-48
2021/12/02 01:26:07;;;;;;;2.00;0.90;;;26.10;56.90;;;;;;5130630;23;20039;-48
2021/12/02 01:28:10;;;;;;;1.08;0.80;;;26.10;57.40;;;;;;5129319;23;21108;-44
2021/12/02 01:30:12;;;;;;;6.05;0.80;;;26.10;58.20;;;;;;5114228;23;20086;-51
2021/12/02 01:32:17;;;;;;;1.65;0.90;;;26.20;58.70;;;;;;5100260;23;20028;-51
2021/12/02 01:34:24;;;;;;;1.48;0.52;;;26.20;59.10;;;;;;5099954;23;20032;-44
2021/12/02 01:36:31;;;;;;;1.15;0.80;;;26.30;59.70;;;;;;5127863;23;20075;-48
2021/12/02 01:38:34;;;;;;;0.77;0.60;;;26.30;60.00;;;;;;5127168;23;20075;-45
2021/12/02 01:40:37;;;;;;;1.70;0.80;;;26.40;60.50;;;;;;5130381;23;20517;-46
2021/12/02 01:42:41;;;;;;;0.63;0.63;;;26.40;60.90;;;;;;5133290;23;20659;-47
2021/12/02 01:44:43;;;;;;;0.68;0.68;;;26.40;61.20;;;;;;5131929;23;20028;-48
2021/12/02 01:46:51;;;;;;;1.53;0.70;;;26.50;61.60;;;;;;5128231;23;20036;-46
2021/12/02 01:49:03;;;;;;;0.88;0.63;;;26.50;61.80;;;;;;5128375;23;20266;-44
2021/12/02 01:51:09;;;;;;;1.23;0.70;;;26.50;62.10;;;;;;5081167;23;20064;-44
2021/12/02 01:53:16;;;;;;;0.85;0.75;;;26.50;62.30;;;;;;5131168;23;20063;-49
2021/12/02 01:55:21;;;;;;;1.65;0.80;;;26.60;62.50;;;;;;5129565;23;20024;-48
2021/12/02 01:57:35;;;;;;;1.67;0.90;;;26.60;62.80;;;;;;5127956;23;20201;-44
2021/12/02 01:59:39;;;;;;;1.58;0.75;;;26.70;62.70;;;;;;5132623;23;20108;-44
2021/12/02 02:01:44;;;;;;;3.20;0.75;;;26.70;62.60;;;;;;5103215;23;20535;-45
2021/12/02 02:03:46;;;;;;;1.42;0.82;;;26.70;62.50;;;;;;5127551;23;20953;-42
2021/12/02 02:05:58;;;;;;;1.88;1.13;;;26.70;62.60;;;;;;5127413;23;20252;-44
2021/12/02 02:08:21;;;;;;;1.33;0.88;;;26.80;62.70;;;;;;5125835;23;20016;-45
2021/12/02 02:10:24;;;;;;;2.08;0.90;;;26.80;62.70;;;;;;5126941;23;20035;-44
2021/12/02 02:12:26;;;;;;;2.15;0.95;;;26.80;62.80;;;;;;5130531;23;20062;-50
2021/12/02 02:14:29;;;;;;;0.60;0.60;;;26.80;62.80;;;;;;5130919;23;20737;-50
2021/12/02 02:16:32;;;;;;;;;;;26.80;62.20;;;;;;5103292;23;20044;-48
2021/12/02 02:18:34;;;;;;;1.38;1.08;;;26.90;61.90;;;;;;5096393;23;20114;-51
2021/12/02 02:20:43;;;;;;;1.73;1.20;;;26.80;61.30;;;;;;5126425;23;20052;-49
2021/12/02 02:22:45;;;;;;;2.35;1.00;;;26.90;61.20;;;;;;5126077;23;20035;-51
2021/12/02 02:24:47;;;;;;;0.97;0.80;;;26.90;61.20;;;;;;5127191;23;20024;-49
2021/12/02 02:26:50;;;;;;;2.00;1.27;;;26.90;61.30;;;;;;5103531;23;20043;-44
2021/12/02 02:28:52;;;;;;;1.20;1.00;;;26.90;62.30;;;;;;5131007;23;20295;-49
2021/12/02 02:30:55;;;;;;;3.10;1.05;;;27.00;62.60;;;;;;5132935;23;20486;-45
2021/12/02 02:32:57;;;;;;;2.20;1.00;;;27.00;63.00;;;;;;5128865;23;20035;-48
2021/12/02 02:34:59;;;;;;;1.55;1.02;;;27.00;62.60;;;;;;5130734;23;20024;-45
2021/12/02 02:37:04;;;;;;;1.20;0.90;;;27.00;59.00;;;;;;5130455;23;20735;-49
2021/12/02 02:39:07;;;;;;;0.93;0.82;;;26.90;57.00;;;;;;5128435;23;20541;-47
2021/12/02 02:41:11;;;;;;;1.67;1.10;;;26.70;55.60;;;;;;5130102;23;20072;-48
2021/12/02 02:43:22;;;;;;;2.63;0.80;;;26.60;54.90;;;;;;5133200;23;20070;-50
2021/12/02 02:45:24;;;;;;;1.45;0.90;;;26.50;54.20;;;;;;5129048;23;20100;-49
2021/12/02 02:47:27;;;;;;;1.17;1.00;;;26.40;53.90;;;;;;5132544;23;20055;-49
2021/12/02 02:49:29;;;;;;;0.70;0.65;;;26.20;53.40;;;;;;5106959;23;20148;-51
2021/12/02 02:51:33;;;;;;;1.53;1.10;;;26.10;53.20;;;;;;5132435;23;20953;-48
2021/12/02 02:53:36;;;;;;;2.55;0.82;;;26.00;53.10;;;;;;5100659;23;20028;-46
2021/12/02 02:55:38;;;;;;;2.00;1.17;;;25.90;52.90;;;;;;5131028;23;20028;-52
2021/12/02 02:57:49;;;;;;;1.85;1.00;;;25.80;53.20;;;;;;5101647;23;20021;-47
2021/12/02 03:00:02;;;;;;;1.05;0.90;;;25.70;53.00;;;;;;5130358;23;20026;-51
2021/12/02 03:02:12;;;;;;;0.70;0.70;;;25.70;53.20;;;;;;5129504;23;20168;-50
2021/12/02 03:08:30;;;;;;;1.20;0.80;;;25.40;53.10;;;;;;5128734;23;20066;-48
2021/12/02 03:10:53;;;;;;;1.33;0.85;;;25.30;53.10;;;;;;5130468;23;20032;-47
2021/12/02 03:12:59;;;;;;;2.15;0.70;;;25.20;52.90;;;;;;5131717;23;20099;-44
2021/12/02 03:17:05;;;;;;;1.40;0.82;;;25.10;53.30;;;;;;5132639;23;20035;-45
2021/12/02 03:19:07;;;;;;;0.90;0.80;;;25.00;53.30;;;;;;5131720;23;20364;-50
2021/12/02 03:21:22;;;;;;;1.10;0.80;;;24.90;53.30;;;;;;5129488;23;20436;-46
2021/12/02 03:23:25;;;;;;;0.73;0.73;;;24.80;53.40;;;;;;5133708;23;20205;-47
2021/12/02 03:25:27;;;;;;;0.93;0.83;;;24.80;53.30;;;;;;5130643;23;20109;-49
2021/12/02 03:27:29;;;;;;;1.05;0.85;;;24.70;53.40;;;;;;5130345;23;20274;-46
2021/12/02 03:29:32;;;;;;;0.88;0.68;;;24.60;53.50;;;;;;5130878;23;20430;-47
2021/12/02 03:31:34;;;;;;;1.17;0.68;;;24.60;53.70;;;;;;5129082;23;20078;-46
2021/12/02 03:33:36;;;;;;;0.93;0.70;;;24.50;53.70;;;;;;5131798;23;20488;-51
2021/12/02 03:35:39;;;;;;;1.30;0.60;;;24.40;53.50;;;;;;5136085;23;20327;-51
2021/12/02 03:37:41;;;;;;;0.83;0.77;;;;;;;;;;5103440;23;20679;-49
2021/12/02 03:39:43;;;;;;;1.35;0.95;;;;;;;;;;5130279;23;20123;-49
2021/12/02 03:41:45;;;;;;;0.80;0.80;;;24.40;53.70;;;;;;5130410;23;20039;-45
2021/12/02 03:43:48;;;;;;;2.67;1.08;;;24.20;54.00;;;;;;5130076;23;20428;-45
2021/12/02 03:45:50;;;;;;;1.10;0.70;;;24.10;54.00;;;;;;5130845;23;20425;-51
2021/12/02 03:47:53;;;;;;;1.38;0.88;;;24.10;54.20;;;;;;5106169;23;20028;-45
2021/12/02 03:49:55;;;;;;;0.50;0.50;;;24.00;54.20;;;;;;5135533;23;20115;-48
2021/12/02 03:51:57;;;;;;;0.98;0.70;;;24.00;54.60;;;;;;5130576;23;20047;-49
2021/12/02 03:53:59;;;;;;;0.88;0.55;;;23.90;54.30;;;;;;5132223;23;20135;-45
2021/12/02 03:56:03;;;;;;;0.73;0.70;;;23.90;54.80;;;;;;5131711;23;20027;-47
2021/12/02 03:58:05;;;;;;;0.68;0.68;;;23.90;54.80;;;;;;5132479;23;20020;-43
2021/12/02 04:02:12;;;;;;;0.70;0.70;;;23.80;54.20;;;;;;4170204;27;20421;-44
2021/12/02 04:04:15;;;;;;;1.13;0.57;;;23.80;54.60;;;;;;4165591;28;20147;-46
2021/12/02 04:06:17;;;;;;;1.52;0.68;;;23.70;54.60;;;;;;4164290;28;21571;-48
2021/12/02 04:08:24;;;;;;;1.13;0.90;;;23.70;54.80;;;;;;4163613;28;20129;-44
2021/12/02 04:10:27;;;;;;;0.70;0.65;;;23.60;54.80;;;;;;4155439;28;20151;-49
2021/12/02 04:12:45;;;;;;;0.85;0.65;;;23.60;54.90;;;;;;4148156;28;20072;-49
2021/12/02 04:14:55;;;;;;;0.68;0.65;;;23.60;54.80;;;;;;4152315;28;20085;-48
2021/12/02 04:17:04;;;;;;;1.25;0.70;;;23.50;54.90;;;;;;4155370;28;20053;-55
2021/12/02 04:19:10;;;;;;;1.15;0.60;;;23.50;55.00;;;;;;4157006;28;20234;-55
2021/12/02 04:21:12;;;;;;;1.60;0.80;;;23.50;55.10;;;;;;4155385;28;20445;-53
2021/12/02 04:23:17;;;;;;;1.10;0.70;;;23.40;55.10;;;;;;4150769;28;20059;-50
2021/12/02 04:25:20;;;;;;;0.85;0.60;;;23.40;55.10;;;;;;4147942;28;20114;-51
2021/12/02 04:27:22;;;;;;;0.63;0.57;;;23.30;55.10;;;;;;4148641;28;20281;-50
2021/12/02 04:29:25;;;;;;;0.60;0.60;;;23.30;55.10;;;;;;4146804;28;20080;-54
2021/12/02 04:31:27;;;;;;;1.05;0.68;;;23.30;54.90;;;;;;4151914;28;20163;-54
2021/12/02 04:33:30;;;;;;;0.52;0.52;;;23.30;55.00;;;;;;4152831;28;20049;-54
2021/12/02 04:35:32;;;;;;;1.80;0.67;;;23.30;55.30;;;;;;4145972;28;20052;-46
2021/12/02 04:37:34;;;;;;;1.02;0.60;;;23.20;55.70;;;;;;4146432;28;20316;-47
2021/12/02 04:39:36;;;;;;;1.70;0.85;;;23.20;56.00;;;;;;4146229;28;20147;-48
2021/12/02 04:41:39;;;;;;;0.77;0.70;;;23.20;56.30;;;;;;4147756;28;20053;-50
2021/12/02 04:43:41;;;;;;;2.25;0.80;;;23.20;55.80;;;;;;4148005;28;20045;-48
2021/12/02 04:45:44;;;;;;;0.38;0.32;;;23.20;56.10;;;;;;4154654;28;20045;-49
2021/12/02 04:47:46;;;;;;;1.73;0.80;;;23.10;55.70;;;;;;4142471;28;20896;-50
2021/12/02 04:49:49;;;;;;;0.90;0.70;;;23.20;56.90;;;;;;4142320;28;20059;-51
2021/12/02 04:51:51;;;;;;;0.85;0.55;;;23.20;57.40;;;;;;4140847;28;20076;-54
2021/12/02 04:53:53;;;;;;;1.08;0.60;;;23.30;57.90;;;;;;4141423;28;20041;-51
2021/12/02 04:55:55;;;;;;;5.47;0.90;;;23.50;58.40;;;;;;4142011;28;20048;-47
2021/12/02 04:57:57;;;;;;;1.17;0.57;;;23.70;58.80;;;;;;4144007;28;20530;-50
2021/12/02 05:00:01;;;;;;;1.38;0.70;;;23.80;59.10;;;;;;4144125;28;20091;-49
2021/12/02 05:02:02;;;;;;;;;;;23.90;59.40;;;;;;4138393;28;20258;-54
2021/12/02 05:04:04;;;;;;;0.70;0.60;;;24.10;59.70;;;;;;4137583;28;19952;-52
2021/12/02 05:06:07;;;;;;;1.10;0.70;;;24.20;59.70;;;;;;4135607;28;20056;-50
2021/12/02 05:08:09;;;;;;;0.65;0.50;;;24.40;59.90;;;;;;4139107;28;20083;-46
2021/12/02 05:10:11;;;;;;;1.10;0.80;;;24.50;60.10;;;;;;4143243;28;20049;-52
2021/12/02 05:12:13;;;;;;;3.33;0.90;;;24.70;60.00;;;;;;4141302;28;20049;-50
2021/12/02 05:14:16;;;;;;;1.25;0.68;;;24.80;60.00;;;;;;4127699;28;22318;-53
2021/12/02 05:16:18;;;;;;;1.92;1.00;;;24.90;60.10;;;;;;4128046;28;20049;-51
2021/12/02 05:18:21;;;;;;;2.17;0.60;;;25.10;60.00;;;;;;4127546;28;20517;-46
2021/12/02 05:20:23;;;;;;;1.37;0.60;;;25.20;60.10;;;;;;4126926;28;20139;-49
2021/12/02 05:22:26;;;;;;;1.43;0.60;;;25.40;60.00;;;;;;4128180;28;20403;-46
2021/12/02 05:24:28;;;;;;;1.00;0.63;;;25.50;60.00;;;;;;4132989;28;20046;-52
2021/12/02 05:26:30;;;;;;;1.13;0.95;;;25.60;59.80;;;;;;4121217;28;20140;-50
2021/12/02 05:28:33;;;;;;;1.63;0.82;;;25.70;59.70;;;;;;4122312;28;20046;-50
2021/12/02 05:30:35;;;;;;;1.95;0.65;;;25.80;59.50;;;;;;4125490;28;20073;-56
2021/12/02 05:32:37;;;;;;;0.90;0.70;;;25.90;59.30;;;;;;4127229;28;20076;-51
2021/12/02 05:34:39;;;;;;;1.17;0.50;;;26.10;59.40;;;;;;4125268;28;20687;-57
2021/12/02 05:36:42;;;;;;;1.47;0.73;;;26.10;59.10;;;;;;4132356;28;20342;-53
2021/12/02 05:38:44;;;;;;;2.25;1.00;;;26.30;59.20;;;;;;4133610;28;20050;-52
2021/12/02 05:40:46;;;;;;;0.97;0.73;;;26.30;59.20;;;;;;4129084;28;20271;-56
2021/12/02 05:42:48;;;;;;;0.95;0.82;;;26.40;59.00;;;;;;4129741;28;20391;-56
2021/12/02 05:44:50;;;;;;;1.77;0.90;;;26.60;59.00;;;;;;4129693;28;20055;-53
2021/12/02 05:46:53;;;;;;;2.30;1.00;;;26.60;58.90;;;;;;4132262;28;20766;-55
2021/12/02 05:48:56;;;;;;;4.05;1.20;;;26.70;58.90;;;;;;4135706;28;20068;-55
2021/12/02 05:50:58;;;;;;;2.40;0.93;;;26.80;58.60;;;;;;4138517;28;21400;-54
2021/12/02 05:53:00;;;;;;;2.78;1.00;;;26.90;58.60;;;;;;4133826;28;20052;-56
2021/12/02 05:55:03;;;;;;;1.73;1.10;;;27.00;58.50;;;;;;4132125;28;20053;-52
2021/12/02 05:57:05;;;;;;;1.85;1.05;;;27.10;58.50;;;;;;4130191;28;20044;-52
2021/12/02 05:59:08;;;;;;;1.30;0.97;;;27.20;58.40;;;;;;4131510;28;20052;-53
2021/12/02 06:01:11;;;;;;;2.08;1.02;;;27.30;58.30;;;;;;4133473;28;20517;-55
2021/12/02 06:03:13;;;;;;;2.22;1.15;;;27.40;58.20;;;;;;4136865;28;20118;-54
2021/12/02 06:05:22;;;;;;;1.90;0.95;;;27.50;58.20;;;;;;4129033;28;20119;-52
2021/12/02 06:07:24;;;;;;;3.72;1.10;;;27.50;58.20;;;;;;4116581;28;20061;-56
2021/12/02 06:09:26;;;;;;;2.47;0.90;;;27.70;58.50;;;;;;4118255;28;20061;-50
2021/12/02 06:11:28;;;;;;;2.78;1.10;;;27.80;58.50;;;;;;4128445;28;20080;-54
2021/12/02 06:13:31;;;;;;;1.85;1.20;;;27.80;58.50;;;;;;4128625;28;20053;-48
2021/12/02 06:15:33;;;;;;;3.00;1.43;;;27.90;58.40;;;;;;4128420;28;20045;-48
2021/12/02 06:17:38;;;;;;;2.30;1.23;;;27.90;58.20;;;;;;4134251;28;20049;-53
2021/12/02 06:19:40;;;;;;;2.33;1.30;;;28.00;58.40;;;;;;4136262;28;20050;-54
2021/12/02 06:21:42;;;;;;;2.63;1.45;;;28.10;56.60;;;;;;4129589;28;20123;-52
2021/12/02 06:23:45;;;;;;;2.80;1.47;;;28.00;54.60;;;;;;4128824;28;21016;-53
2021/12/02 06:25:47;;;;;;;3.40;1.45;;;27.70;53.10;;;;;;4130692;28;20071;-51
2021/12/02 06:27:56;;;;;;;1.88;0.98;;;27.50;52.40;;;;;;4127899;28;20052;-56
2021/12/02 06:29:58;;;;;;;2.33;1.17;;;27.30;52.20;;;;;;4131718;28;20088;-46
2021/12/02 06:32:00;;;;;;;1.77;1.20;;;27.10;52.20;;;;;;4131446;28;20048;-53
2021/12/02 06:34:02;;;;;;;1.42;0.93;;;27.00;52.00;;;;;;4136961;28;20052;-49
2021/12/02 06:36:04;;;;;;;2.23;1.00;;;26.90;51.80;;;;;;4125307;28;20060;-48
2021/12/02 06:38:07;;;;;;;2.27;0.80;;;26.80;51.80;;;;;;4125615;28;20057;-47
2021/12/02 06:40:10;;;;;;;1.45;0.70;;;26.60;51.90;;;;;;4130351;28;20045;-50
2021/12/02 06:42:12;;;;;;;2.42;1.00;;;26.50;51.70;;;;;;4126369;28;20801;-48
2021/12/02 06:44:14;;;;;;;0.98;0.70;;;26.30;51.80;;;;;;4127612;28;20275;-47
2021/12/02 06:46:16;;;;;;;1.33;0.93;;;26.20;51.70;;;;;;4133561;28;20055;-45
2021/12/02 06:48:18;;;;;;;0.70;0.70;;;26.10;51.80;;;;;;4133197;28;20069;-49
2021/12/02 06:50:21;;;;;;;1.13;0.68;;;26.00;51.80;;;;;;4128063;28;20060;-47
2021/12/02 06:52:26;;;;;;;1.13;0.70;;;25.90;51.80;;;;;;4128083;28;20048;-51
2021/12/02 06:54:29;;;;;;;0.85;0.70;;;25.80;51.80;;;;;;4130181;28;20056;-48
2021/12/02 06:56:31;;;;;;;1.25;0.73;;;25.70;51.90;;;;;;4129807;28;20060;-49
2021/12/02 06:58:33;;;;;;;1.13;0.80;;;25.60;51.70;;;;;;4128458;28;20523;-45
2021/12/02 07:02:13;;;;;;;1.20;0.60;;;25.40;51.40;;;;;;4167344;27;20442;-46
2021/12/02 07:04:16;;;;;;;1.33;0.65;;;25.40;51.90;;;;;;4170175;28;20547;-47
2021/12/02 07:06:18;;;;;;;1.33;0.88;;;25.30;51.70;;;;;;4168504;28;20078;-52
2021/12/02 07:08:21;;;;;;;0.77;0.60;;;25.20;51.80;;;;;;4164833;28;20051;-46
2021/12/02 07:10:25;;;;;;;1.13;0.70;;;25.20;51.70;;;;;;4157706;28;20574;-46
2021/12/02 07:12:33;;;;;;;1.00;0.70;;;25.10;51.90;;;;;;4147944;28;20871;-50
2021/12/02 07:14:35;;;;;;;0.77;0.70;;;25.00;51.90;;;;;;4149407;28;20045;-52
2021/12/02 07:16:38;;;;;;;1.00;0.75;;;24.90;51.90;;;;;;4148071;28;20056;-53
2021/12/02 07:18:46;;;;;;;0.57;0.57;;;24.90;52.10;;;;;;4150003;28;20545;-51
2021/12/02 07:20:50;;;;;;;1.70;1.00;;;24.80;52.00;;;;;;4146981;28;20177;-50
2021/12/02 07:22:52;;;;;;;1.17;1.00;;;24.80;52.00;;;;;;4153450;28;20045;-48
2021/12/02 07:24:54;;;;;;;0.73;0.70;;;24.70;52.00;;;;;;4152320;28;20068;-50
2021/12/02 07:26:57;;;;;;;0.98;0.93;;;24.60;52.00;;;;;;4149517;28;20162;-47
2021/12/02 07:28:59;;;;;;;2.08;0.85;;;24.60;52.30;;;;;;4147392;28;20737;-49
2021/12/02 07:31:03;;;;;;;1.58;0.90;;;24.50;51.90;;;;;;4147559;28;20681;-47
2021/12/02 07:33:08;;;;;;;0.82;0.68;;;24.50;52.10;;;;;;4146092;28;20087;-50
2021/12/02 07:35:16;;;;;;;0.70;0.50;;;24.40;52.20;;;;;;4180933;28;20098;-50
2021/12/02 07:37:19;;;;;;;0.82;0.70;;;24.30;52.10;;;;;;4148014;28;20068;-47
2021/12/02 07:39:22;;;;;;;1.25;0.77;;;24.30;52.30;;;;;;4151070;28;20053;-49
2021/12/02 07:41:24;;;;;;;1.15;0.70;;;24.20;52.50;;;;;;4152961;28;20150;-47
2021/12/02 07:43:27;;;;;;;1.92;0.82;;;24.10;52.40;;;;;;4150559;28;20048;-48
2021/12/02 07:45:36;;;;;;;1.25;0.98;;;24.00;52.40;;;;;;4145822;28;20380;-49
2021/12/02 07:47:40;;;;;;;2.05;0.90;;;24.00;53.00;;;;;;4148301;28;20041;-52
2021/12/02 07:49:43;;;;;;;0.82;0.60;;;24.00;52.40;;;;;;4146245;28;21048;-51
2021/12/02 07:51:50;;;;;;;0.95;0.63;;;23.90;52.20;;;;;;4148846;28;20070;-49
2021/12/02 07:53:52;;;;;;;1.15;0.70;;;23.90;52.50;;;;;;4146728;28;20139;-49
2021/12/02 07:55:56;;;;;;;1.05;0.88;;;23.80;52.50;;;;;;4148611;28;20452;-50
2021/12/02 07:57:59;;;;;;;1.83;0.88;;;23.80;52.60;;;;;;4148425;28;20502;-45
2021/12/02 08:00:01;;;;;;;1.80;0.77;;;23.70;52.30;;;;;;4151785;28;20048;-48
2021/12/02 08:02:04;;;;;;;1.60;0.70;;;23.60;52.30;;;;;;4152119;28;20057;-52
2021/12/02 08:04:06;;;;;;;1.08;0.60;;;23.60;52.40;;;;;;4148551;28;20053;-53
2021/12/02 08:06:10;;;;;;;1.50;0.70;;;23.50;52.30;;;;;;4148341;28;20057;-54
2021/12/02 08:08:13;;;;;;;2.13;0.77;;;23.50;52.40;;;;;;4129654;28;20060;-51
2021/12/02 08:10:16;;;;;;;1.50;0.85;;;23.40;52.50;;;;;;4147888;28;20151;-52
2021/12/02 08:12:18;;;;;;;2.15;0.82;;;23.40;52.80;;;;;;4141003;28;20064;-48
2021/12/02 08:14:20;;;;;;;0.85;0.60;;;23.30;52.70;;;;;;4140790;28;20049;-55
2021/12/02 08:16:22;;;;;;;1.70;0.85;;;23.30;52.90;;;;;;4139115;28;20044;-53
2021/12/02 08:18:24;;;;;;;0.93;0.70;;;23.20;52.90;;;;;;4137829;28;20056;-52
2021/12/02 08:20:28;;;;;;;0.65;0.50;;;23.20;52.80;;;;;;4140091;28;20044;-51
2021/12/02 08:22:31;;;;;;;1.08;0.88;;;23.20;53.10;;;;;;4136860;28;20080;-52
2021/12/02 08:24:33;;;;;;;1.20;0.80;;;23.10;52.90;;;;;;4139900;28;20061;-49
2021/12/02 08:26:36;;;;;;;0.75;0.75;;;23.10;53.10;;;;;;4142567;28;20077;-53
2021/12/02 08:28:39;;;;;;;0.95;0.80;;;23.00;52.90;;;;;;4147596;28;20071;-51
2021/12/02 08:30:41;;;;;;;0.63;0.63;;;22.90;52.70;;;;;;4146844;28;20048;-48
2021/12/02 08:32:45;;;;;;;1.75;0.90;;;22.90;52.90;;;;;;4143974;28;20054;-54
2021/12/02 08:34:47;;;;;;;2.00;1.08;;;22.80;52.90;;;;;;4144216;28;20104;-49
2021/12/02 08:36:52;;;;;;;1.50;1.20;;;22.80;52.90;;;;;;4143155;28;20057;-50
2021/12/02 08:38:55;;;;;;;1.17;0.75;;;22.70;53.10;;;;;;4140524;28;20068;-44
2021/12/02 08:40:58;;;;;;;1.58;0.98;;;22.70;53.70;;;;;;4136398;28;20102;-46
2021/12/02 08:43:01;;;;;;;;;;;22.80;54.30;;;;;;4142176;28;20053;-52
2021/12/02 08:45:05;;;;;;;0.77;0.70;;;22.90;54.60;;;;;;4173000;28;19928;-56
2021/12/02 08:47:09;;;;;;;2.13;0.70;;;23.00;55.10;;;;;;4140558;28;20080;-53
2021/12/02 08:49:11;;;;;;;2.08;0.82;;;23.10;55.40;;;;;;4136235;28;20056;-52
2021/12/02 08:51:14;;;;;;;0.95;0.65;;;23.20;55.60;;;;;;4138770;28;20060;-51
2021/12/02 08:53:16;;;;;;;1.15;0.77;;;23.30;55.70;;;;;;4136563;28;20045;-53
2021/12/02 08:55:20;;;;;;;0.70;0.70;;;23.40;56.00;;;;;;4136172;28;20045;-49
2021/12/02 08:57:24;;;;;;;1.02;0.93;;;23.40;56.20;;;;;;4136910;28;20072;-56
2021/12/02 08:59:26;;;;;;;1.40;0.93;;;23.50;56.40;;;;;;4141929;28;20425;-56
2021/12/02 09:01:29;;;;;;;1.45;0.80;;;23.60;56.60;;;;;;4140246;28;20579;-50
2021/12/02 09:03:33;;;;;;;1.20;0.67;;;23.70;56.90;;;;;;4136081;28;20053;-53
2021/12/02 09:05:36;;;;;;;0.85;0.85;;;23.80;57.00;;;;;;4133090;28;21560;-53
2021/12/02 09:07:39;;;;;;;1.10;0.70;;;23.80;57.30;;;;;;4133704;28;20053;-52
2021/12/02 09:09:41;;;;;;;1.02;0.88;;;23.90;57.40;;;;;;4133606;28;20059;-52
2021/12/02 09:11:43;;;;;;;1.65;0.75;;;24.00;57.50;;;;;;4135102;28;20517;-50
2021/12/02 09:13:45;;;;;;;1.17;0.80;;;24.00;57.60;;;;;;4137476;28;20139;-51
2021/12/02 09:15:48;;;;;;;1.55;0.82;;;24.10;57.70;;;;;;4139992;28;20103;-55
2021/12/02 09:17:50;;;;;;;2.03;0.67;;;24.20;57.90;;;;;;4131984;28;21408;-53
2021/12/02 09:19:52;;;;;;;0.93;0.70;;;24.20;58.00;;;;;;4135060;28;20533;-50
2021/12/02 09:21:54;;;;;;;2.08;0.75;;;24.30;58.10;;;;;;4132759;28;20053;-52
2021/12/02 09:23:56;;;;;;;0.95;0.77;;;24.40;58.20;;;;;;4129944;28;20053;-54
2021/12/02 09:25:59;;;;;;;1.55;0.80;;;24.40;58.20;;;;;;4135538;28;21112;-52
2021/12/02 09:28:02;;;;;;;1.10;0.80;;;24.50;58.20;;;;;;4138296;28;20076;-47
2021/12/02 09:30:06;;;;;;;1.33;0.88;;;24.50;58.50;;;;;;4130825;28;20053;-49
2021/12/02 09:32:09;;;;;;;2.70;0.95;;;24.60;58.70;;;;;;4131328;28;20367;-52
2021/12/02 09:34:11;;;;;;;2.38;1.02;;;24.60;58.70;;;;;;4129872;28;20112;-55
2021/12/02 09:36:14;;;;;;;1.25;0.70;;;24.70;58.80;;;;;;4131801;28;20147;-55
2021/12/02 09:38:16;;;;;;;1.73;0.70;;;24.70;58.80;;;;;;4131490;28;20057;-48
2021/12/02 09:40:20;;;;;;;1.33;0.63;;;24.80;58.90;;;;;;4135454;28;20078;-54
2021/12/02 09:42:22;;;;;;;1.90;0.70;;;24.80;58.90;;;;;;4137008;28;20148;-52
2021/12/02 09:44:25;;;;;;;2.43;0.90;;;24.90;58.90;;;;;;4135000;28;20099;-54
2021/12/02 09:46:27;;;;;;;0.90;0.80;;;24.90;59.00;;;;;;4132404;28;20055;-50
2021/12/02 09:48:30;;;;;;;1.33;0.80;;;25.00;59.00;;;;;;4131405;28;20156;-56
2021/12/02 09:50:36;;;;;;;1.17;0.90;;;25.00;59.10;;;;;;4131932;28;20052;-52
2021/12/02 09:52:42;;;;;;;1.27;0.73;;;25.00;59.10;;;;;;4131261;28;20057;-56
2021/12/02 09:54:53;;;;;;;1.27;0.85;;;25.10;59.40;;;;;;4123582;28;20076;-56
2021/12/02 09:56:58;;;;;;;1.38;0.85;;;25.10;59.50;;;;;;4129936;28;20317;-45
2021/12/02 09:59:08;;;;;;;1.65;0.93;;;25.20;59.50;;;;;;4129420;28;20060;-44
2021/12/02 10:01:13;;;;;;;2.78;0.90;;;25.20;59.50;;;;;;4126084;28;20656;-47
2021/12/02 10:03:32;;;;;;;2.00;0.90;;;25.20;59.50;;;;;;4129299;28;20080;-52
2021/12/02 10:05:46;;;;;;;1.38;0.90;;;25.30;59.50;;;;;;4129150;28;20040;-53
2021/12/02 10:07:55;;;;;;;1.52;0.80;;;25.30;59.60;;;;;;4134827;28;20214;-50
2021/12/02 10:12:22;;;;;;;3.92;0.90;;;25.40;59.60;;;;;;4128637;28;20175;-49
2021/12/02 10:14:42;;;;;;;0.98;0.73;;;25.40;59.70;;;;;;4130314;28;20074;-52
2021/12/02 10:16:45;;;;;;;3.75;0.90;;;25.40;59.70;;;;;;4128559;28;20167;-48
2021/12/02 10:21:24;;;;;;;2.15;1.02;;;25.50;59.50;;;;;;4134127;28;20596;-51
2021/12/02 10:23:32;;;;;;;2.20;1.00;;;25.50;59.70;;;;;;4132155;28;20148;-52
2021/12/02 10:25:36;;;;;;;1.27;0.88;;;25.50;59.80;;;;;;4134176;28;20450;-54
2021/12/02 10:28:04;;;;;;;1.58;0.90;;;25.60;59.80;;;;;;4130201;28;20144;-49
2021/12/02 10:30:24;;;;;;;1.55;0.88;;;25.60;59.70;;;;;;4134024;28;20556;-47
2021/12/02 10:32:32;;;;;;;2.25;1.25;;;25.70;59.70;;;;;;4126833;28;20163;-48
2021/12/02 10:35:03;;;;;;;3.00;1.05;;;25.70;59.80;;;;;;4121031;28;20089;-49
2021/12/02 10:37:12;;;;;;;5.70;1.05;;;25.70;59.70;;;;;;4133292;28;20049;-52
2021/12/02 10:39:20;;;;;;;3.00;1.17;;;25.70;59.70;;;;;;4125520;28;20075;-50
2021/12/02 10:41:28;;;;;;;2.55;0.95;;;25.70;59.90;;;;;;4128908;28;20102;-48
2021/12/02 10:43:30;;;;;;;1.02;0.85;;;25.80;60.00;;;;;;4130466;28;20132;-49
2021/12/02 10:45:32;;;;;;;6.93;1.77;;;25.80;59.80;;;;;;4134999;28;20073;-48
2021/12/02 10:47:35;;;;;;;2.33;1.27;;;25.80;59.90;;;;;;4132916;28;20045;-52
2021/12/02 10:49:46;;;;;;;3.22;1.10;;;25.80;59.90;;;;;;4128570;28;20144;-51
2021/12/02 10:51:51;;;;;;;2.33;0.95;;;25.80;60.00;;;;;;4132943;28;20818;-51
2021/12/02 10:54:07;;;;;;;2.53;0.98;;;25.90;60.10;;;;;;4131314;28;22057;-50
2021/12/02 10:56:10;;;;;;;2.25;0.88;;;25.90;60.00;;;;;;4136112;28;20056;-55
2021/12/02 10:58:13;;;;;;;1.55;0.98;;;25.90;59.90;;;;;;4132357;28;20155;-53
2021/12/02 11:00:21;;;;;;;1.35;0.93;;;25.90;59.90;;;;;;4130929;28;22043;-51
2021/12/02 11:02:49;;;;;;;1.50;0.90;;;25.90;60.00;;;;;;4131145;28;20218;-53
2021/12/02 11:04:59;;;;;;;0.60;0.60;;;26.00;60.20;;;;;;4131260;28;20057;-54